createdAt,value
2022-12-03T00:03:05.530Z,10.32
2022-12-03T00:06:18.021Z,9.40
2022-12-03T00:09:26.549Z,9.60
2022-12-03T00:12:41.110Z,10.57
2022-12-03T00:15:58.359Z,11.32
2022-12-03T00:19:15.018Z,10.70
2022-12-03T00:22:40.327Z,10.13
2022-12-03T00:25:49.716Z,11.00
2022-12-03T00:29:21.140Z,10.87
2022-12-03T00:32:42.274Z,11.15
2022-12-03T00:36:28.077Z,10.80
2022-12-03T00:43:29.582Z,10.98
2022-12-03T00:47:06.230Z,9.93
2022-12-03T00:50:08.899Z,11.20
2022-12-03T00:53:45.271Z,11.05
2022-12-03T00:57:07.778Z,10.85
2022-12-03T01:00:19.994Z,10.95
2022-12-03T01:03:31.021Z,10.50
2022-12-03T01:06:40.543Z,11.57
2022-12-03T01:09:48.734Z,10.90
2022-12-03T01:12:57.025Z,12.63
2022-12-03T01:16:05.607Z,8.23
2022-12-03T01:19:15.014Z,10.80
2022-12-03T01:26:23.389Z,11.15
2022-12-03T01:29:25.236Z,10.77
2022-12-03T01:32:42.146Z,11.27
2022-12-03T01:36:03.994Z,10.40
2022-12-03T01:39:05.681Z,11.12
2022-12-03T01:42:36.350Z,11.95
2022-12-03T01:45:44.462Z,12.05
2022-12-03T01:48:58.063Z,11.68
2022-12-03T01:52:29.198Z,10.50
2022-12-03T01:55:31.397Z,10.63
2022-12-03T01:58:47.046Z,10.15
2022-12-03T02:01:56.068Z,11.63
2022-12-03T02:05:19.184Z,11.15
2022-12-03T02:08:38.054Z,11.20
2022-12-03T02:12:08.097Z,10.93
2022-12-03T02:15:31.315Z,10.55
2022-12-03T02:19:07.062Z,9.95
2022-12-03T02:22:35.684Z,9.95
2022-12-03T02:25:37.850Z,10.80
2022-12-03T02:28:56.020Z,10.95
2022-12-03T02:32:11.807Z,12.15
2022-12-03T02:35:38.003Z,10.40
2022-12-03T02:38:49.302Z,10.48
2022-12-03T02:42:10.856Z,10.93
2022-12-03T02:45:32.080Z,11.15
2022-12-03T02:48:45.021Z,11.02
2022-12-03T02:55:34.938Z,9.15
2022-12-03T02:59:09.060Z,10.43
2022-12-03T03:03:12.046Z,10.32
2022-12-03T03:06:32.715Z,10.32
2022-12-03T03:09:42.026Z,10.32
2022-12-03T03:13:01.744Z,11.05
2022-12-03T03:16:19.519Z,10.27
2022-12-03T03:19:35.979Z,11.20
2022-12-03T03:22:44.735Z,10.48
2022-12-03T03:26:06.031Z,12.10
2022-12-03T03:29:21.025Z,10.48
2022-12-03T03:32:29.069Z,11.13
2022-12-03T03:35:46.074Z,11.10
2022-12-03T03:38:54.014Z,10.40
2022-12-03T03:42:02.926Z,10.45
2022-12-03T03:45:21.588Z,11.80
2022-12-03T03:48:31.090Z,10.90
2022-12-03T03:51:46.166Z,11.55
2022-12-03T03:54:48.207Z,12.00
2022-12-03T03:58:02.990Z,11.73
2022-12-03T04:01:11.090Z,11.98
2022-12-03T04:04:29.045Z,11.50
2022-12-03T04:07:32.618Z,12.25
2022-12-03T04:10:47.011Z,11.02
2022-12-03T04:13:55.685Z,11.50
2022-12-03T04:17:04.093Z,11.18
2022-12-03T04:20:12.978Z,10.90
2022-12-03T04:23:37.018Z,11.85
2022-12-03T04:26:45.657Z,11.40
2022-12-03T04:29:54.015Z,11.00
2022-12-03T04:37:35.916Z,10.20
2022-12-03T04:40:53.039Z,11.25
2022-12-03T04:44:08.042Z,11.20
2022-12-03T04:47:12.683Z,12.18
2022-12-03T04:50:27.054Z,11.25
2022-12-03T04:53:29.014Z,12.70
2022-12-03T04:56:44.073Z,9.85
2022-12-03T04:59:55.362Z,11.77
2022-12-03T05:03:07.048Z,8.90
2022-12-03T05:06:15.086Z,11.40
2022-12-03T05:09:23.737Z,11.60
2022-12-03T05:12:39.020Z,9.93
2022-12-03T05:15:40.747Z,11.38
2022-12-03T05:18:55.204Z,11.80
2022-12-03T05:21:58.552Z,9.82
2022-12-03T05:25:34.092Z,10.27
2022-12-03T05:28:45.147Z,10.35
2022-12-03T05:31:54.597Z,10.65
2022-12-03T05:35:13.077Z,11.77
2022-12-03T05:38:28.046Z,9.88
2022-12-03T05:45:22.774Z,10.45
2022-12-03T05:48:38.835Z,12.98
2022-12-03T05:52:00.599Z,10.95
2022-12-03T05:55:18.761Z,12.60
2022-12-03T05:58:33.792Z,11.70
2022-12-03T06:01:45.068Z,11.65
2022-12-03T06:05:12.786Z,11.12
2022-12-03T06:08:21.462Z,10.95
2022-12-03T06:11:45.545Z,12.98
2022-12-03T06:14:55.103Z,9.67
2022-12-03T06:18:03.402Z,11.73
2022-12-03T06:21:17.771Z,12.40
2022-12-03T06:24:19.406Z,13.00
2022-12-03T06:27:33.781Z,11.25
2022-12-03T06:30:51.837Z,13.40
2022-12-03T06:34:06.884Z,13.60
2022-12-03T06:37:08.622Z,11.45
2022-12-03T06:40:23.759Z,12.20
2022-12-03T06:43:39.038Z,13.13
2022-12-03T06:46:47.813Z,11.50
2022-12-03T06:49:56.298Z,11.48
2022-12-03T06:53:05.627Z,11.27
2022-12-03T06:56:14.223Z,12.98
2022-12-03T06:59:22.751Z,11.07
2022-12-03T07:02:38.873Z,11.97
2022-12-03T07:06:05.081Z,11.40
2022-12-03T07:09:19.833Z,12.82
2022-12-03T07:12:22.311Z,11.93
2022-12-03T07:15:43.818Z,12.63
2022-12-03T07:18:51.780Z,12.97
2022-12-03T07:22:00.661Z,12.18
2022-12-03T07:25:08.767Z,13.93
2022-12-03T07:28:17.208Z,13.55
2022-12-03T07:31:25.789Z,12.73
2022-12-03T07:34:34.286Z,13.73
2022-12-03T07:37:42.865Z,13.13
2022-12-03T07:40:52.298Z,13.25
2022-12-03T07:44:13.774Z,13.48
2022-12-03T07:47:28.994Z,12.18
2022-12-03T07:54:35.892Z,11.55
2022-12-03T07:57:50.822Z,10.00
2022-12-03T08:00:59.400Z,11.18
2022-12-03T08:04:08.782Z,11.82
2022-12-03T08:07:17.337Z,12.87
2022-12-03T08:10:32.747Z,12.32
2022-12-03T08:13:40.762Z,12.77
2022-12-03T08:16:49.378Z,12.63
2022-12-03T08:19:59.807Z,12.13
2022-12-03T08:23:14.278Z,11.63
2022-12-03T08:26:32.841Z,12.68
2022-12-03T08:29:41.642Z,12.45
2022-12-03T08:32:51.518Z,13.48
2022-12-03T08:36:12.843Z,12.32
2022-12-03T08:39:41.776Z,13.27
2022-12-03T08:42:56.796Z,12.23
2022-12-03T08:46:18.821Z,12.27
2022-12-03T08:49:35.850Z,10.82
2022-12-03T08:53:04.846Z,11.30
2022-12-03T08:56:27.962Z,11.53
2022-12-03T08:59:45.607Z,12.85
2022-12-03T09:02:57.852Z,11.70
2022-12-03T09:17:43.835Z,12.23
2022-12-03T09:20:58.902Z,12.18
2022-12-03T09:24:09.694Z,12.52
2022-12-03T09:31:09.865Z,10.80
2022-12-03T09:35:12.341Z,12.35
2022-12-03T09:39:28.789Z,9.98
2022-12-03T09:47:09.919Z,11.85
2022-12-03T09:50:22.710Z,12.03
2022-12-03T09:53:44.223Z,11.55
2022-12-03T09:56:54.818Z,12.02
2022-12-03T10:00:03.905Z,11.20
2022-12-03T10:03:30.172Z,11.55
2022-12-03T10:06:45.608Z,10.20
2022-12-03T10:09:58.622Z,9.88
2022-12-03T10:13:35.846Z,12.07
2022-12-03T10:16:38.335Z,11.00
2022-12-03T10:19:59.839Z,11.30
2022-12-03T10:23:37.963Z,11.10
2022-12-03T10:26:46.849Z,10.75
2022-12-03T10:34:45.070Z,10.32
2022-12-03T10:37:59.246Z,10.77
2022-12-03T10:41:36.388Z,10.43
2022-12-03T10:44:48.357Z,9.57
2022-12-03T10:48:24.788Z,10.10
2022-12-03T10:55:45.037Z,9.77
2022-12-03T10:59:29.665Z,8.87
2022-12-03T11:03:20.156Z,7.72
2022-12-03T11:06:39.296Z,8.57
2022-12-03T11:09:51.729Z,6.55
2022-12-03T11:17:06.552Z,8.23
2022-12-03T11:20:50.875Z,9.05
2022-12-03T11:24:24.866Z,8.80
2022-12-03T11:27:26.787Z,8.70
2022-12-03T11:34:46.855Z,8.40
2022-12-03T11:38:42.659Z,8.15
2022-12-03T11:42:26.306Z,9.00
2022-12-03T11:45:44.815Z,8.88
2022-12-03T11:48:47.615Z,7.32
2022-12-03T11:52:35.717Z,9.17
2022-12-03T11:55:46.835Z,8.23
2022-12-03T11:59:04.600Z,8.32
2022-12-03T12:07:08.946Z,8.43
2022-12-03T12:14:51.908Z,8.50
2022-12-03T12:26:24.810Z,8.52
2022-12-03T12:29:44.107Z,7.97
2022-12-03T12:37:56.620Z,8.40
2022-12-03T12:42:05.035Z,8.45
2022-12-03T12:45:30.805Z,7.93
2022-12-03T12:48:35.016Z,8.60
2022-12-03T12:55:43.252Z,8.40
2022-12-03T12:59:29.146Z,8.25
2022-12-03T13:16:26.885Z,7.28
2022-12-03T13:31:00.925Z,8.68
2022-12-03T13:46:58.298Z,8.20
2022-12-03T13:50:32.079Z,8.07
2022-12-03T13:54:00.205Z,7.00
2022-12-03T14:16:29.118Z,7.62
2022-12-03T14:19:46.830Z,8.35
2022-12-03T14:23:42.431Z,6.93
2022-12-03T14:26:50.712Z,7.22
2022-12-03T15:23:15.996Z,7.70
2022-12-03T15:26:33.246Z,7.82
2022-12-03T16:08:15.986Z,8.88
2022-12-03T16:15:59.984Z,7.82
2022-12-03T16:27:22.745Z,9.45
2022-12-03T16:30:39.525Z,8.23
2022-12-03T16:33:49.900Z,9.32
2022-12-03T16:36:58.587Z,9.68
2022-12-03T16:40:07.126Z,9.60
2022-12-03T16:43:23.953Z,9.43
2022-12-03T16:54:09.898Z,9.23
2022-12-03T17:01:45.976Z,10.80
2022-12-03T17:05:09.951Z,10.50
2022-12-03T17:08:12.105Z,10.23
2022-12-03T17:11:36.877Z,10.95
2022-12-03T17:14:55.390Z,10.57
2022-12-03T17:18:32.376Z,10.23
2022-12-03T17:21:40.874Z,10.60
2022-12-03T17:25:04.856Z,11.75
2022-12-03T17:28:20.004Z,12.23
2022-12-03T17:31:41.910Z,10.93
2022-12-03T17:34:53.075Z,11.12
2022-12-03T17:41:44.938Z,12.02
2022-12-03T17:45:05.867Z,10.90
2022-12-03T17:48:20.998Z,10.95
2022-12-03T17:51:31.398Z,12.02
2022-12-03T18:06:17.678Z,10.85
2022-12-03T18:09:33.023Z,12.50
2022-12-03T18:12:50.001Z,12.03
2022-12-03T18:24:28.949Z,11.35
2022-12-03T18:27:52.454Z,11.68
2022-12-03T18:31:30.909Z,12.93
2022-12-03T18:34:57.812Z,12.02
2022-12-03T18:38:20.861Z,11.63
2022-12-03T18:41:39.979Z,13.00
2022-12-03T18:44:46.326Z,13.25
2022-12-03T18:48:03.971Z,11.83
2022-12-03T18:51:14.226Z,13.30
2022-12-03T18:58:04.225Z,12.48
2022-12-03T19:01:52.886Z,12.00
2022-12-03T19:05:16.084Z,13.03
2022-12-03T19:08:37.958Z,12.63
2022-12-03T19:12:14.470Z,12.23
2022-12-03T19:22:50.895Z,11.23
2022-12-03T19:26:02.303Z,12.27
2022-12-03T19:29:16.984Z,13.73
2022-12-03T19:32:48.923Z,12.30
2022-12-03T19:35:58.851Z,11.90
2022-12-03T19:39:07.931Z,13.57
2022-12-03T19:45:49.886Z,11.57
2022-12-03T19:48:59.033Z,12.68
2022-12-03T19:52:08.006Z,13.62
2022-12-03T19:55:22.925Z,12.00
2022-12-03T19:58:39.410Z,11.75
2022-12-03T20:05:33.401Z,12.15
2022-12-03T20:08:39.370Z,12.07
2022-12-03T20:11:58.350Z,13.30
2022-12-03T20:15:00.220Z,12.30
2022-12-03T20:18:14.886Z,13.02
2022-12-03T20:21:22.235Z,13.48
2022-12-03T20:24:43.937Z,12.35
2022-12-03T20:27:45.745Z,12.63
2022-12-03T20:31:05.982Z,13.15
2022-12-03T20:34:07.818Z,13.75
2022-12-03T20:37:23.886Z,13.25
2022-12-03T20:40:32.079Z,13.20
2022-12-03T20:43:40.600Z,13.53
2022-12-03T20:46:48.906Z,12.82
2022-12-03T20:49:58.582Z,13.57
2022-12-03T20:53:24.846Z,13.88
2022-12-03T21:00:43.908Z,13.40
2022-12-03T21:04:04.551Z,12.48
2022-12-03T21:11:03.092Z,12.88
2022-12-03T21:21:57.447Z,13.65
2022-12-03T21:25:18.908Z,12.65
2022-12-03T21:28:29.304Z,12.65
2022-12-03T21:31:43.888Z,13.05
2022-12-03T21:34:48.671Z,14.50
2022-12-03T21:38:04.296Z,13.38
2022-12-03T21:41:12.947Z,13.70
2022-12-03T21:44:26.919Z,13.35
2022-12-03T21:47:41.952Z,13.23
2022-12-03T21:51:08.917Z,14.67
2022-12-03T21:54:13.542Z,12.50
2022-12-03T21:57:33.194Z,14.13
2022-12-03T22:01:30.943Z,13.77
2022-12-03T22:04:45.979Z,12.95
2022-12-03T22:07:54.034Z,13.50
2022-12-03T22:11:20.015Z,13.13
2022-12-03T22:14:42.922Z,13.70
2022-12-03T22:17:55.099Z,13.88
2022-12-03T22:21:04.156Z,13.82
2022-12-03T22:24:21.478Z,13.17
2022-12-03T22:27:39.959Z,13.27
2022-12-03T22:30:48.876Z,12.75
2022-12-03T22:34:00.988Z,13.77
2022-12-03T22:37:15.934Z,14.93
2022-12-03T22:40:17.825Z,13.53
2022-12-03T22:43:32.909Z,14.15
2022-12-03T22:46:43.857Z,13.93
2022-12-03T22:50:02.905Z,14.15
2022-12-03T22:53:12.756Z,14.15
2022-12-03T22:56:39.901Z,13.53
2022-12-03T22:59:55.120Z,14.43
2022-12-03T23:03:13.543Z,13.65
2022-12-03T23:06:30.999Z,13.77
2022-12-03T23:09:32.727Z,13.73
2022-12-03T23:12:48.014Z,13.70
2022-12-03T23:15:58.046Z,14.65
2022-12-03T23:19:06.514Z,14.02
2022-12-03T23:22:16.131Z,14.13
2022-12-03T23:25:31.326Z,13.80
2022-12-03T23:28:42.931Z,13.27
2022-12-03T23:31:52.301Z,10.23
2022-12-03T23:35:03.963Z,13.70
2022-12-03T23:38:12.442Z,11.93
2022-12-03T23:41:29.959Z,12.68
2022-12-03T23:48:46.606Z,13.10
2022-12-03T23:52:01.247Z,13.32
2022-12-03T23:55:17.970Z,12.57
2022-12-03T23:58:29.212Z,11.52
